Time;durP1;ratioP1;P1;durP2;ratioP2;P2;SDS_P1;SDS_P2;PMS_P1;PMS_P2;Temp;Humidity;BMP_temperature;BMP_pressure;BME280_temperature;BME280_humidity;BME280_pressure;Samples;Min_cycle;Max_cycle;Signal;HPM_P1;HPM_P2
2023/12/27 00:00:29;;;;;;;6.37;2.40;;;;;;;18.97;56.92;100969.38;4954094;28;20198;-71
2023/12/27 00:02:55;;;;;;;10.20;2.20;;;;;;;18.96;56.54;100964.84;4986164;28;20205;-71
2023/12/27 00:05:20;;;;;;;10.27;2.23;;;;;;;18.93;56.70;100968.44;4976009;28;20937;-71
2023/12/27 00:07:45;;;;;;;7.13;2.67;;;;;;;18.90;56.69;100960.56;4951543;28;20496;-71
2023/12/27 00:10:11;;;;;;;5.43;2.57;;;;;;;18.85;56.61;100964.53;4971590;28;20683;-71
2023/12/27 00:12:37;;;;;;;6.03;2.43;;;;;;;18.85;56.49;100964.53;4986478;28;20205;-71
2023/12/27 00:15:02;;;;;;;6.80;2.60;;;;;;;18.94;56.56;100955.78;4992810;28;20201;-71
2023/12/27 00:17:28;;;;;;;8.33;2.60;;;;;;;18.99;56.42;100959.22;4964771;28;20205;-70
2023/12/27 00:19:53;;;;;;;7.40;2.23;;;;;;;18.94;57.04;100956.63;4957762;28;20202;-70
2023/12/27 00:22:19;;;;;;;7.20;2.53;;;;;;;18.93;56.68;100966.41;4942620;28;20199;-70
2023/12/27 00:24:44;;;;;;;8.77;2.70;;;;;;;18.96;56.47;100968.53;4941366;28;20202;-70
2023/12/27 00:27:10;;;;;;;6.20;2.53;;;;;;;18.92;56.79;100970.44;4941298;28;20191;-71
2023/12/27 00:29:37;;;;;;;8.43;2.30;;;;;;;18.92;57.01;100966.78;4975806;28;20220;-70
2023/12/27 00:32:02;;;;;;;7.80;2.80;;;;;;;18.93;56.54;100963.56;4975735;28;20272;-71
2023/12/27 00:34:28;;;;;;;10.90;3.00;;;;;;;18.93;56.89;100975.00;4967442;28;20462;-71
2023/12/27 00:36:53;;;;;;;6.70;1.97;;;;;;;18.91;56.90;100967.97;4983727;28;20745;-71
2023/12/27 00:39:23;;;;;;;6.70;2.43;;;;;;;18.90;56.78;100972.84;4956867;28;20208;-70
2023/12/27 00:41:49;;;;;;;5.93;2.30;;;;;;;18.91;57.34;100968.78;4976454;28;20291;-71
2023/12/27 00:44:14;;;;;;;7.57;2.47;;;;;;;18.87;57.08;100965.00;4976220;28;20787;-71
2023/12/27 00:46:41;;;;;;;7.27;2.33;;;;;;;18.90;56.87;100961.41;4956578;28;20206;-71
2023/12/27 00:49:06;;;;;;;6.57;2.03;;;;;;;18.88;57.22;100954.41;4943334;28;20217;-72
2023/12/27 00:51:32;;;;;;;4.97;2.10;;;;;;;18.86;57.37;100951.91;4955899;28;20464;-71
2023/12/27 00:53:57;;;;;;;7.60;2.30;;;;;;;18.87;57.32;100939.25;4972266;28;20202;-71
2023/12/27 00:56:23;;;;;;;8.73;2.30;;;;;;;18.85;57.59;100933.06;4986797;28;20595;-71
2023/12/27 00:58:48;;;;;;;5.20;2.83;;;;;;;18.86;57.70;100939.63;4975234;28;20608;-71
2023/12/27 01:01:14;;;;;;;6.60;2.60;;;;;;;18.88;57.32;100951.53;4971915;28;20225;-70
2023/12/27 01:03:40;;;;;;;6.30;2.10;;;;;;;18.88;57.46;100952.38;4975542;28;20190;-71
2023/12/27 01:06:06;;;;;;;7.97;2.23;;;;;;;18.86;57.36;100951.91;4992451;28;20212;-71
2023/12/27 01:08:31;;;;;;;6.63;2.30;;;;;;;18.85;57.54;100958.81;4975085;28;20456;-71
2023/12/27 01:10:57;;;;;;;7.50;2.40;;;;;;;18.82;57.24;100953.81;4992867;28;20256;-71
2023/12/27 01:13:22;;;;;;;5.27;1.80;;;;;;;18.82;57.86;100953.81;4972753;28;20260;-71
2023/12/27 01:15:48;;;;;;;6.57;1.97;;;;;;;18.84;57.96;100953.47;4975913;28;20201;-71
2023/12/27 01:18:13;;;;;;;6.50;2.37;;;;;;;18.85;57.26;100947.38;4975804;28;20189;-71
2023/12/27 01:20:38;;;;;;;5.90;2.10;;;;;;;18.82;57.92;100948.09;4991734;28;20657;-71
2023/12/27 01:23:04;;;;;;;6.57;2.33;;;;;;;18.85;57.61;100946.53;4962828;28;20212;-71
2023/12/27 01:25:29;;;;;;;4.80;2.13;;;;;;;18.81;57.64;100951.34;4972688;28;20201;-71
2023/12/27 01:27:55;;;;;;;5.87;2.30;;;;;;;18.81;57.96;100959.94;4975995;28;20205;-71
2023/12/27 01:30:20;;;;;;;10.93;2.13;;;;;;;18.80;57.59;100961.94;4955823;28;20222;-71
2023/12/27 01:32:46;;;;;;;6.80;2.20;;;;;;;18.80;57.76;100961.94;4991646;28;20197;-71
2023/12/27 01:35:11;;;;;;;3.10;1.70;;;;;;;18.81;57.74;100969.34;4962289;28;20605;-71
2023/12/27 01:37:38;;;;;;;4.50;1.80;;;;;;;18.81;57.84;100969.34;4963563;28;20209;-71
2023/12/27 01:40:04;;;;;;;6.13;1.90;;;;;;;18.76;57.98;100971.66;4979456;28;20601;-71
2023/12/27 01:42:29;;;;;;;3.00;1.90;;;;;;;18.80;57.84;100973.41;4977044;28;20543;-71
2023/12/27 01:44:54;;;;;;;5.20;1.93;;;;;;;18.82;58.00;100959.53;4958165;28;20446;-71
2023/12/27 01:47:20;;;;;;;4.50;2.17;;;;;;;18.80;57.95;100961.94;4960833;28;20216;-71
2023/12/27 01:49:45;;;;;;;4.50;1.83;;;;;;;18.78;58.17;100957.78;4974570;28;20783;-71
2023/12/27 01:52:11;;;;;;;7.50;2.07;;;;;;;18.79;58.02;100959.44;4958695;28;20213;-70
2023/12/27 01:54:37;;;;;;;6.23;2.07;;;;;;;18.75;57.89;100956.50;4942803;28;20198;-71
2023/12/27 01:57:03;;;;;;;4.73;2.00;;;;;;;18.74;58.31;100945.41;4942108;28;20233;-71
2023/12/27 01:59:28;;;;;;;4.70;2.10;;;;;;;18.75;57.91;100944.22;4962841;28;20453;-71
2023/12/27 02:01:54;;;;;;;4.83;2.27;;;;;;;18.76;58.04;100943.03;4959785;28;20213;-74
2023/12/27 02:04:19;;;;;;;4.33;1.90;;;;;;;18.75;58.41;100942.19;4972185;28;20208;-74
2023/12/27 02:06:45;;;;;;;3.87;1.80;;;;;;;18.74;58.22;100940.53;4973817;28;20269;-74
2023/12/27 02:09:10;;;;;;;6.00;2.07;;;;;;;18.73;57.90;100933.16;4959111;28;20240;-74
2023/12/27 02:11:36;;;;;;;4.30;1.70;;;;;;;18.73;58.26;100947.47;4959285;28;20644;-74
2023/12/27 02:14:01;;;;;;;6.20;2.23;;;;;;;18.75;57.92;100942.19;4973790;28;20206;-74
2023/12/27 02:16:27;;;;;;;5.07;1.70;;;;;;;18.77;57.98;100938.97;4975185;28;20209;-74
2023/12/27 02:18:52;;;;;;;3.50;1.60;;;;;;;18.76;57.70;100943.84;4975142;28;20198;-74
2023/12/27 02:21:18;;;;;;;3.97;2.07;;;;;;;18.74;58.36;100949.13;4974087;28;20572;-74
2023/12/27 02:23:44;;;;;;;5.77;2.17;;;;;;;18.73;57.82;100949.47;4958425;28;20209;-74
2023/12/27 02:26:09;;;;;;;4.67;2.10;;;;;;;18.73;57.98;100947.47;4975043;28;20244;-74
2023/12/27 02:28:34;;;;;;;3.97;2.00;;;;;;;18.72;58.19;100945.78;4965301;28;20211;-74
2023/12/27 02:31:00;;;;;;;6.47;1.80;;;;;;;18.73;58.38;100955.22;4956940;28;20209;-74
2023/12/27 02:33:25;;;;;;;3.40;1.90;;;;;;;18.74;57.72;100946.25;4975056;28;20214;-74
2023/12/27 02:35:51;;;;;;;4.40;1.83;;;;;;;18.71;58.22;100949.03;4974101;28;20237;-74
2023/12/27 02:38:16;;;;;;;5.60;1.60;;;;;;;18.71;58.39;100943.31;4957538;28;20276;-73
2023/12/27 02:40:42;;;;;;;3.40;1.70;;;;;;;18.67;58.18;100942.38;4958484;28;20205;-74
2023/12/27 02:43:07;;;;;;;3.90;1.67;;;;;;;18.70;58.44;100938.75;4971813;28;20250;-74
2023/12/27 02:45:32;;;;;;;4.90;1.90;;;;;;;18.68;58.46;100941.19;4969456;28;20198;-74
2023/12/27 02:47:58;;;;;;;4.30;2.00;;;;;;;18.68;58.20;100924.00;4954167;28;20214;-74
2023/12/27 02:50:23;;;;;;;3.97;1.80;;;;;;;18.65;57.99;100919.84;4954242;28;20202;-73
2023/12/27 02:52:49;;;;;;;3.90;1.80;;;;;;;18.67;58.50;100926.03;4969111;28;20284;-74
2023/12/27 02:55:14;;;;;;;4.43;2.10;;;;;;;18.66;58.47;100920.69;4973107;28;20218;-74
2023/12/27 02:57:40;;;;;;;4.03;1.50;;;;;;;18.66;58.80;100920.69;4974296;28;20213;-74
2023/12/27 03:00:06;;;;;;;4.30;1.67;;;;;;;18.65;58.58;100911.28;4976638;28;20209;-73
2023/12/27 03:02:32;;;;;;;4.53;2.07;;;;;;;18.67;58.66;100923.16;4989575;28;20233;-76
2023/12/27 03:04:57;;;;;;;4.13;2.00;;;;;;;18.67;58.31;100922.34;4958281;28;20467;-74
2023/12/27 03:07:23;;;;;;;2.70;1.57;;;;;;;18.66;58.69;100927.22;4970543;28;20201;-74
2023/12/27 03:09:48;;;;;;;6.33;2.00;;;;;;;18.65;58.40;100925.56;4974602;28;20220;-73
2023/12/27 03:12:13;;;;;;;5.50;2.30;;;;;;;18.65;58.31;100919.00;4974570;28;20608;-74
2023/12/27 03:14:39;;;;;;;3.23;1.77;;;;;;;18.62;58.41;100914.84;4974170;28;20549;-74
2023/12/27 03:17:05;;;;;;;5.13;2.20;;;;;;;18.62;58.46;100908.31;4971776;28;20214;-74
2023/12/27 03:19:31;;;;;;;5.30;1.93;;;;;;;18.63;58.71;100904.25;4974490;28;20447;-73
2023/12/27 03:21:56;;;;;;;3.60;1.80;;;;;;;18.61;58.26;100903.81;4970267;28;20206;-74
2023/12/27 03:24:22;;;;;;;5.53;1.80;;;;;;;18.61;58.43;100906.66;4970876;28;20206;-74
2023/12/27 03:26:47;;;;;;;4.83;1.90;;;;;;;18.61;58.26;100901.75;4954995;28;20218;-73
2023/12/27 03:29:12;;;;;;;3.20;1.80;;;;;;;18.62;58.48;100909.13;4983556;28;20217;-71
2023/12/27 03:31:38;;;;;;;3.00;1.40;;;;;;;18.63;58.20;100896.53;4984101;28;20210;-73
2023/12/27 03:34:04;;;;;;;3.60;1.50;;;;;;;18.62;58.28;100903.41;4972871;28;20302;-73
2023/12/27 03:36:29;;;;;;;5.07;2.00;;;;;;;18.63;58.55;100892.81;4973024;28;20264;-74
2023/12/27 03:38:54;;;;;;;6.30;1.87;;;;;;;18.59;58.82;100892.72;4956576;28;20197;-74
2023/12/27 03:41:20;;;;;;;4.77;1.77;;;;;;;18.59;58.55;100891.88;4956611;28;20209;-74
2023/12/27 03:43:45;;;;;;;4.17;1.60;;;;;;;18.57;58.57;100892.25;4951332;28;20257;-74
2023/12/27 03:46:11;;;;;;;3.67;1.63;;;;;;;18.60;58.25;100882.94;4967548;28;20201;-73
2023/12/27 03:48:36;;;;;;;4.43;1.90;;;;;;;18.61;58.34;100883.78;4967241;28;20300;-74
2023/12/27 03:51:02;;;;;;;6.43;1.87;;;;;;;18.60;58.53;100882.94;4971279;28;20523;-74
2023/12/27 03:53:27;;;;;;;3.47;1.43;;;;;;;18.60;58.29;100880.09;4970925;28;20870;-73
2023/12/27 03:55:53;;;;;;;3.97;2.10;;;;;;;18.59;58.61;100875.56;4969118;28;20207;-73
2023/12/27 03:58:18;;;;;;;3.87;1.90;;;;;;;18.59;58.71;100884.16;4971015;28;20212;-73
2023/12/27 04:00:44;;;;;;;3.27;1.73;;;;;;;18.55;58.61;100868.91;4963294;28;20217;-74
2023/12/27 04:03:09;;;;;;;5.30;1.63;;;;;;;18.58;58.58;100876.78;4981763;28;20201;-74
2023/12/27 04:05:35;;;;;;;4.00;1.87;;;;;;;18.55;58.54;100870.94;4970760;28;20214;-74
2023/12/27 04:08:00;;;;;;;4.07;1.87;;;;;;;18.55;58.72;100871.78;4956465;28;20217;-74
2023/12/27 04:10:31;;;;;;;3.70;1.70;;;;;;;18.55;58.64;100868.91;4969678;28;20203;-75
2023/12/27 04:12:56;;;;;;;3.77;1.70;;;;;;;18.56;58.70;100866.91;4974017;28;20291;-74
2023/12/27 04:15:22;;;;;;;2.77;1.57;;;;;;;18.56;58.48;100852.59;4973008;28;20488;-74
2023/12/27 04:17:47;;;;;;;3.47;1.50;;;;;;;18.55;58.38;100863.19;4972879;28;20205;-73
2023/12/27 04:20:13;;;;;;;4.67;1.50;;;;;;;18.55;58.41;100863.19;4972638;28;20209;-73
2023/12/27 04:22:38;;;;;;;3.63;1.70;;;;;;;18.56;58.55;100864.84;4980941;28;20312;-74
2023/12/27 04:25:04;;;;;;;3.30;1.53;;;;;;;18.58;58.28;100858.78;4972780;28;20646;-71
2023/12/27 04:27:29;;;;;;;5.93;1.50;;;;;;;18.55;58.61;100862.38;4956609;28;20210;-71
2023/12/27 04:29:55;;;;;;;3.40;1.37;;;;;;;18.56;58.96;100866.91;4940629;28;20217;-71
2023/12/27 04:32:20;;;;;;;3.00;1.70;;;;;;;18.55;58.46;100863.19;4966806;28;20559;-71
2023/12/27 04:34:46;;;;;;;3.90;1.80;;;;;;;18.55;58.42;100874.63;4971775;28;20202;-71
2023/12/27 04:37:11;;;;;;;4.03;1.67;;;;;;;18.55;58.33;100873.81;4987099;28;20234;-71
2023/12/27 04:39:37;;;;;;;2.50;1.40;;;;;;;18.53;58.45;100874.19;4974404;28;20193;-71
2023/12/27 04:42:02;;;;;;;2.90;1.60;;;;;;;18.56;58.68;100870.56;4992516;28;20208;-71
2023/12/27 04:44:28;;;;;;;2.70;1.50;;;;;;;18.54;58.34;100863.56;4974835;28;20301;-71
2023/12/27 04:46:53;;;;;;;3.80;1.70;;;;;;;18.53;58.69;100859.91;4973742;28;20221;-71
2023/12/27 04:49:18;;;;;;;3.70;1.57;;;;;;;18.54;58.59;100866.44;4940762;28;20276;-70
2023/12/27 04:51:46;;;;;;;4.07;1.70;;;;;;;18.56;58.14;100858.31;4988357;28;20205;-71
2023/12/27 04:54:11;;;;;;;4.53;1.60;;;;;;;18.57;58.22;100859.97;4992189;28;20206;-71
2023/12/27 04:56:36;;;;;;;5.83;2.50;;;;;;;18.56;58.61;100864.84;4989094;28;20512;-71
2023/12/27 04:59:02;;;;;;;2.93;1.37;;;;;;;18.54;58.37;100863.56;4955898;28;20206;-70
2023/12/27 05:01:27;;;;;;;3.03;1.20;;;;;;;18.56;58.67;100859.13;4965184;28;20337;-70
2023/12/27 05:03:53;;;;;;;3.60;1.60;;;;;;;18.55;58.12;100853.78;4957707;28;20217;-70
2023/12/27 05:06:18;;;;;;;3.43;1.53;;;;;;;18.55;58.66;100848.91;4957259;28;20201;-69
2023/12/27 05:08:44;;;;;;;3.70;1.70;;;;;;;18.56;58.25;100844.03;4973712;28;20217;-69
2023/12/27 05:11:20;;;;;;;2.70;1.20;;;;;;;18.52;58.54;100840.25;4977363;28;20204;-70
2023/12/27 05:13:45;;;;;;;5.30;2.30;;;;;;;18.54;58.26;100844.41;4989302;28;20986;-69
2023/12/27 05:16:11;;;;;;;4.07;1.70;;;;;;;18.55;58.53;100845.19;4990227;28;20456;-70
2023/12/27 05:18:40;;;;;;;4.00;1.70;;;;;;;18.53;58.69;100856.19;4977283;28;20208;-70
2023/12/27 05:21:06;;;;;;;2.77;1.40;;;;;;;18.53;58.51;100859.06;4968943;28;20202;-70
2023/12/27 05:23:32;;;;;;;2.80;1.50;;;;;;;18.52;58.57;100860.25;4974497;28;20446;-70
2023/12/27 05:25:57;;;;;;;2.60;1.50;;;;;;;18.53;58.19;100865.63;4957490;28;21030;-71
2023/12/27 05:28:23;;;;;;;2.60;1.63;;;;;;;18.53;58.75;100859.91;4958772;28;20236;-70
2023/12/27 05:30:48;;;;;;;2.90;1.40;;;;;;;18.53;58.60;100851.31;4973131;28;20289;-70
2023/12/27 05:33:14;;;;;;;3.40;1.50;;;;;;;18.54;58.05;100841.53;4955674;28;20213;-70
2023/12/27 05:35:39;;;;;;;3.17;1.57;;;;;;;18.53;58.24;100837.03;4973472;28;20240;-75
2023/12/27 05:38:04;;;;;;;3.50;1.30;;;;;;;18.52;58.37;100823.91;4970672;28;20214;-72
2023/12/27 05:40:30;;;;;;;3.23;1.67;;;;;;;18.56;58.31;100832.59;4987857;28;20217;-73
2023/12/27 05:42:55;;;;;;;2.67;1.40;;;;;;;18.54;58.52;100821.53;4973781;28;20210;-74
2023/12/27 05:45:21;;;;;;;3.20;1.40;;;;;;;18.54;58.35;100809.25;4989144;28;20208;-74
2023/12/27 05:47:48;;;;;;;2.97;1.30;;;;;;;18.53;58.28;100802.72;4943575;28;20197;-74
2023/12/27 05:50:13;;;;;;;4.37;1.67;;;;;;;18.56;58.55;100821.16;4959567;28;20209;-74
2023/12/27 05:52:39;;;;;;;4.23;1.67;;;;;;;18.54;58.47;100829.25;4975476;28;20455;-74
2023/12/27 05:55:05;;;;;;;3.57;1.47;;;;;;;18.55;58.45;100828.88;4975812;28;20209;-74
2023/12/27 05:57:30;;;;;;;2.43;1.20;;;;;;;18.55;58.74;100836.63;4975102;28;20194;-74
2023/12/27 05:59:56;;;;;;;3.40;1.63;;;;;;;18.55;58.49;100830.91;4971645;28;20519;-74
2023/12/27 06:02:21;;;;;;;2.80;1.80;;;;;;;18.54;58.49;100824.38;4976975;28;20209;-74
2023/12/27 06:04:47;;;;;;;3.60;1.40;;;;;;;18.55;58.60;100825.19;4969669;28;20209;-75
2023/12/27 06:07:12;;;;;;;2.17;1.30;;;;;;;18.55;58.36;100831.75;4958134;28;20201;-74
2023/12/27 06:09:39;;;;;;;3.87;1.60;;;;;;;18.55;58.40;100826.03;4975026;28;20315;-73
2023/12/27 06:12:07;;;;;;;2.67;1.27;;;;;;;18.57;58.72;100837.91;4959023;28;20212;-74
2023/12/27 06:14:32;;;;;;;2.83;1.40;;;;;;;18.59;58.17;100846.13;4957717;28;20449;-74
2023/12/27 06:16:58;;;;;;;2.90;1.43;;;;;;;18.55;58.35;100833.75;4987556;28;20455;-74
2023/12/27 06:19:23;;;;;;;3.73;1.60;;;;;;;18.53;58.67;100825.59;4956331;28;20244;-74
2023/12/27 06:21:49;;;;;;;3.00;1.47;;;;;;;18.58;57.93;100828.16;4974800;28;20618;-73
2023/12/27 06:24:14;;;;;;;5.17;1.70;;;;;;;18.59;58.31;100829.81;4972965;28;20893;-73
2023/12/27 06:26:40;;;;;;;2.63;1.53;;;;;;;18.56;58.15;100841.97;4957247;28;20696;-74
2023/12/27 06:29:05;;;;;;;2.63;1.17;;;;;;;18.56;58.20;100836.25;4954687;28;20228;-74
2023/12/27 06:31:34;;;;;;;4.13;1.43;;;;;;;18.57;58.32;100829.34;4964115;28;21150;-74
2023/12/27 06:34:00;;;;;;;3.43;1.40;;;;;;;18.54;58.40;100835.81;4959364;28;20325;-74
2023/12/27 06:36:25;;;;;;;2.30;1.33;;;;;;;18.60;58.31;100840.06;4989027;28;20485;-74
2023/12/27 06:38:51;;;;;;;2.80;1.33;;;;;;;18.60;58.42;100844.94;4972342;28;20205;-74
2023/12/27 06:41:16;;;;;;;2.77;1.40;;;;;;;18.56;58.54;100841.97;4955506;28;20233;-74
2023/12/27 06:43:43;;;;;;;2.37;1.53;;;;;;;18.55;58.52;100843.19;4975194;28;20197;-74
2023/12/27 06:46:08;;;;;;;2.70;1.40;;;;;;;18.57;57.90;100839.97;4979137;28;20237;-70
2023/12/27 06:48:34;;;;;;;2.80;1.40;;;;;;;18.60;57.96;100828.63;4971408;28;20481;-70
2023/12/27 06:51:01;;;;;;;3.80;1.50;;;;;;;18.56;58.34;100821.97;4987448;28;20210;-70
2023/12/27 06:53:27;;;;;;;3.70;1.60;;;;;;;18.56;58.54;100801.13;4989335;28;20209;-69
2023/12/27 06:55:52;;;;;;;2.60;1.13;;;;;;;18.60;58.36;100814.31;4986177;28;20461;-69
2023/12/27 06:58:18;;;;;;;1.80;1.10;;;;;;;18.58;58.11;100816.72;5007050;28;20196;-70
2023/12/27 07:00:43;;;;;;;2.73;1.17;;;;;;;18.56;58.48;100821.16;5004056;28;20198;-69
2023/12/27 07:03:09;;;;;;;2.37;1.23;;;;;;;18.57;58.21;100814.22;4990119;28;20209;-70
2023/12/27 07:05:34;;;;;;;3.10;1.20;;;;;;;18.54;58.24;100815.78;4974098;28;20214;-70
2023/12/27 07:08:00;;;;;;;2.63;1.10;;;;;;;18.58;58.02;100811.00;4990213;28;20196;-70
2023/12/27 07:10:25;;;;;;;4.07;1.47;;;;;;;18.59;58.11;100818.38;4972070;28;20202;-70
2023/12/27 07:12:51;;;;;;;2.60;1.30;;;;;;;18.59;58.09;100809.81;5006040;28;20197;-70
2023/12/27 07:15:16;;;;;;;5.03;1.80;;;;;;;18.57;58.31;100817.91;5004577;28;20220;-70
2023/12/27 07:17:41;;;;;;;2.27;1.47;;;;;;;18.57;57.91;100820.75;4993072;28;20205;-70
2023/12/27 07:20:08;;;;;;;2.73;1.30;;;;;;;18.60;58.28;100824.91;4989518;28;20216;-70
2023/12/27 07:22:34;;;;;;;2.73;1.30;;;;;;;18.57;58.18;100832.19;4971723;28;20257;-70
2023/12/27 07:24:59;;;;;;;2.60;1.40;;;;;;;18.61;58.00;100838.03;4988328;28;21054;-70
2023/12/27 07:27:25;;;;;;;3.10;1.33;;;;;;;18.60;58.29;100836.34;4970565;28;20201;-70
2023/12/27 07:29:51;;;;;;;5.00;1.50;;;;;;;18.59;58.33;100851.84;5001558;28;20214;-70
2023/12/27 07:32:16;;;;;;;2.90;1.37;;;;;;;18.57;58.30;100842.81;4998657;28;20244;-70
2023/12/27 07:34:42;;;;;;;3.90;1.50;;;;;;;18.56;58.12;100833.41;4972094;28;20200;-70
2023/12/27 07:37:08;;;;;;;4.70;1.80;;;;;;;18.59;58.07;100834.69;4998796;28;20230;-70
2023/12/27 07:39:34;;;;;;;2.43;1.10;;;;;;;18.59;58.26;100831.84;4970335;28;20573;-69
2023/12/27 07:41:59;;;;;;;2.63;1.23;;;;;;;18.59;58.50;100832.69;4970105;28;20449;-70
2023/12/27 07:44:26;;;;;;;2.93;1.30;;;;;;;18.62;58.05;100840.50;4973612;28;20225;-70
2023/12/27 07:46:52;;;;;;;2.80;1.37;;;;;;;18.63;57.73;100856.50;4989619;28;20288;-70
2023/12/27 07:49:17;;;;;;;2.60;1.40;;;;;;;18.60;58.65;100860.06;4989012;28;20479;-69
2023/12/27 07:51:43;;;;;;;6.90;1.50;;;;;;;18.60;58.12;100860.06;4988876;28;20445;-70
2023/12/27 07:54:08;;;;;;;2.83;1.50;;;;;;;18.60;57.85;100857.22;4983728;28;20205;-70
2023/12/27 07:56:35;;;;;;;2.57;1.37;;;;;;;18.61;58.13;100838.84;4976413;28;20744;-74
2023/12/27 07:59:00;;;;;;;3.20;1.73;;;;;;;18.59;58.00;100829.81;4973353;28;20198;-74
2023/12/27 08:01:30;;;;;;;3.90;1.40;;;;;;;18.57;58.21;100840.78;4973284;28;20523;-75
2023/12/27 08:03:55;;;;;;;3.50;1.20;;;;;;;18.61;57.95;100840.91;4957368;28;20212;-75
2023/12/27 08:06:21;;;;;;;2.80;1.40;;;;;;;18.62;57.83;100845.41;4972765;28;20444;-74
2023/12/27 08:08:46;;;;;;;2.20;1.30;;;;;;;18.61;57.95;100844.56;4973260;28;20613;-75
2023/12/27 08:11:12;;;;;;;2.73;1.20;;;;;;;18.62;58.11;100842.56;4971395;28;20206;-75
2023/12/27 08:13:38;;;;;;;2.60;1.20;;;;;;;18.62;58.23;100846.22;4968217;28;20218;-74
2023/12/27 08:16:04;;;;;;;3.60;1.30;;;;;;;18.62;58.16;100840.50;4984745;28;20209;-74
2023/12/27 08:18:29;;;;;;;3.00;1.50;;;;;;;18.62;58.05;100826.19;4954886;28;20210;-74
2023/12/27 08:20:55;;;;;;;2.50;1.30;;;;;;;18.62;58.04;100825.41;4971927;28;20232;-74
2023/12/27 08:23:20;;;;;;;2.57;1.30;;;;;;;18.61;58.06;100813.13;4968538;28;20306;-74
2023/12/27 08:25:46;;;;;;;2.90;1.40;;;;;;;18.63;57.89;100802.16;4956300;28;20264;-74
2023/12/27 08:28:11;;;;;;;2.30;1.00;;;;;;;18.62;57.98;100793.94;4972024;28;20217;-75
2023/12/27 08:30:37;;;;;;;2.40;1.10;;;;;;;18.62;57.94;100808.22;4969721;28;20757;-74
2023/12/27 08:33:06;;;;;;;2.47;1.30;;;;;;;18.60;58.00;100802.03;4971961;28;20205;-72
2023/12/27 08:35:34;;;;;;;2.40;1.30;;;;;;;18.60;57.88;100794.31;4972602;28;20229;-74
2023/12/27 08:38:00;;;;;;;7.00;1.70;;;;;;;18.62;58.28;100793.94;4969036;28;20472;-74
2023/12/27 08:40:26;;;;;;;3.87;1.43;;;;;;;18.61;58.31;100798.00;4972247;28;20452;-74
2023/12/27 08:42:51;;;;;;;2.63;1.27;;;;;;;18.64;57.50;100786.66;4968246;28;20215;-74
2023/12/27 08:45:16;;;;;;;2.30;1.20;;;;;;;18.65;58.08;100782.59;4972618;28;20228;-74
2023/12/27 08:47:43;;;;;;;2.27;1.23;;;;;;;18.65;57.73;100776.03;4956592;28;20213;-72
2023/12/27 08:50:08;;;;;;;2.63;1.20;;;;;;;18.66;57.83;100780.56;4972550;28;20308;-74
2023/12/27 08:52:34;;;;;;;2.97;1.37;;;;;;;18.68;57.69;100783.88;4969345;28;20457;-74
2023/12/27 08:54:59;;;;;;;2.20;1.27;;;;;;;18.68;57.93;100796.16;4971935;28;20225;-74
2023/12/27 08:57:25;;;;;;;3.73;1.10;;;;;;;18.65;57.82;100779.72;4985887;28;20210;-74
2023/12/27 08:59:50;;;;;;;2.53;1.30;;;;;;;18.69;58.10;100794.09;4971224;28;20733;-75
2023/12/27 09:02:16;;;;;;;2.87;1.37;;;;;;;18.67;58.09;100807.97;4938986;28;20257;-74
2023/12/27 09:04:41;;;;;;;2.13;1.20;;;;;;;18.65;58.07;100819.75;4937249;28;20198;-70
2023/12/27 09:07:06;;;;;;;2.10;1.30;;;;;;;18.67;57.99;100820.22;4967792;28;21168;-74
2023/12/27 09:09:32;;;;;;;2.20;1.10;;;;;;;18.65;58.03;100825.47;4954169;28;20616;-74
2023/12/27 09:11:57;;;;;;;2.83;1.10;;;;;;;18.67;58.11;100820.22;4970351;28;20669;-73
2023/12/27 09:14:23;;;;;;;2.43;1.40;;;;;;;18.67;58.07;100831.66;4968346;28;20206;-74
2023/12/27 09:16:49;;;;;;;2.87;1.20;;;;;;;18.69;57.65;100816.97;4966573;28;20197;-74
2023/12/27 09:19:14;;;;;;;2.37;1.40;;;;;;;18.69;57.64;100817.81;4970504;28;20209;-75
2023/12/27 09:21:46;;;;;;;2.57;1.37;;;;;;;18.65;58.15;100794.03;4984234;28;20205;-74
2023/12/27 09:24:12;;;;;;;2.17;1.20;;;;;;;18.68;57.89;100779.00;4952104;28;20256;-73
2023/12/27 09:26:37;;;;;;;2.30;1.30;;;;;;;18.68;58.14;100764.69;4954696;28;20528;-75
2023/12/27 09:29:02;;;;;;;2.00;1.17;;;;;;;18.69;57.87;100786.38;4939744;28;20221;-75
2023/12/27 09:31:30;;;;;;;2.40;1.50;;;;;;;18.70;57.77;100796.59;4968066;28;20281;-74
2023/12/27 09:34:02;;;;;;;4.13;1.40;;;;;;;18.72;57.66;100794.19;4972170;28;20214;-74
2023/12/27 09:36:27;;;;;;;2.80;1.40;;;;;;;18.69;58.07;100796.97;4953764;28;20492;-73
2023/12/27 09:38:53;;;;;;;3.50;1.47;;;;;;;18.68;57.90;100776.13;4953701;28;20478;-75
2023/12/27 09:41:19;;;;;;;2.97;1.50;;;;;;;18.72;58.11;100764.78;4936745;28;20203;-73
2023/12/27 09:43:45;;;;;;;2.10;1.23;;;;;;;18.68;57.90;100769.56;4959188;28;20210;-75
2023/12/27 09:46:10;;;;;;;2.30;1.17;;;;;;;18.69;57.74;100765.50;4953346;28;20214;-75
2023/12/27 09:48:36;;;;;;;3.77;1.20;;;;;;;18.69;58.11;100757.78;4973004;28;20851;-74
2023/12/27 09:51:02;;;;;;;3.93;1.47;;;;;;;18.66;58.13;100749.09;4951882;28;20249;-74
2023/12/27 09:53:27;;;;;;;2.37;1.20;;;;;;;18.70;57.98;100750.84;4969249;28;20202;-73
2023/12/27 09:55:54;;;;;;;1.80;1.20;;;;;;;18.70;57.82;100750.84;4987412;28;20210;-73
2023/12/27 09:58:19;;;;;;;2.23;1.00;;;;;;;18.69;58.16;100757.78;4957923;28;20289;-74
2023/12/27 10:00:45;;;;;;;3.60;1.40;;;;;;;18.74;58.02;100763.19;4975377;28;20457;-72
2023/12/27 10:03:12;;;;;;;3.20;1.43;;;;;;;18.72;57.99;100754.16;4973904;28;20205;-74
2023/12/27 10:05:53;;;;;;;2.93;1.43;;;;;;;18.70;58.07;100753.69;4973345;28;20444;-74
2023/12/27 10:08:18;;;;;;;2.10;1.10;;;;;;;18.74;57.93;100753.78;4949791;28;20633;-74
2023/12/27 10:10:44;;;;;;;3.37;1.67;;;;;;;18.74;57.94;100746.03;4971034;28;20875;-74
2023/12/27 10:13:09;;;;;;;2.50;1.10;;;;;;;18.76;57.88;100749.34;4975605;28;20205;-73
2023/12/27 10:15:34;;;;;;;2.70;1.50;;;;;;;18.75;57.66;100741.97;4957689;28;20654;-71
2023/12/27 10:18:00;;;;;;;3.53;1.73;;;;;;;18.75;57.97;100744.84;4962606;28;20254;-70
2023/12/27 10:20:43;;;;;;;4.10;1.20;;;;;;;18.74;58.08;100734.59;4973775;28;20197;-71
2023/12/27 10:23:08;;;;;;;3.10;1.13;;;;;;;18.76;58.07;100725.66;4956563;28;20206;-70
2023/12/27 10:25:34;;;;;;;1.93;1.10;;;;;;;18.78;57.79;100726.94;4954983;28;20461;-70
2023/12/27 10:27:59;;;;;;;2.10;1.30;;;;;;;18.80;57.31;100713.09;4939328;28;20881;-70
2023/12/27 10:30:24;;;;;;;3.13;1.20;;;;;;;18.82;57.59;100715.56;4972009;28;20213;-70
2023/12/27 10:33:00;;;;;;;3.07;1.47;;;;;;;18.79;58.00;100720.00;4959473;28;20579;-70
2023/12/27 10:35:26;;;;;;;2.80;1.20;;;;;;;18.82;57.77;100707.81;4976533;28;20718;-70
2023/12/27 10:37:59;;;;;;;2.50;1.20;;;;;;;18.79;57.55;100697.13;4958833;28;20516;-70
2023/12/27 10:40:24;;;;;;;2.03;0.97;;;;;;;18.78;57.67;100695.47;4972232;28;20480;-70
2023/12/27 10:42:51;;;;;;;2.27;1.20;;;;;;;18.77;57.78;100679.50;4975162;28;20485;-70
2023/12/27 10:45:17;;;;;;;1.90;1.00;;;;;;;18.80;57.82;100680.78;4990502;28;20264;-70
2023/12/27 10:47:42;;;;;;;2.20;1.10;;;;;;;18.79;57.79;100679.97;4990777;28;20456;-71
2023/12/27 10:50:12;;;;;;;3.00;1.33;;;;;;;18.79;57.97;100685.69;4957812;28;20222;-70
2023/12/27 10:52:38;;;;;;;4.13;1.30;;;;;;;18.78;58.15;100671.75;4940612;28;20209;-71
2023/12/27 10:55:04;;;;;;;2.43;1.23;;;;;;;18.79;57.68;100668.53;4940291;28;20467;-71
2023/12/27 10:57:30;;;;;;;2.30;1.07;;;;;;;18.81;57.54;100676.75;4943750;28;20458;-70
2023/12/27 10:59:55;;;;;;;3.97;1.50;;;;;;;18.80;57.83;100670.19;4955314;28;20249;-71
2023/12/27 11:02:22;;;;;;;2.43;1.37;;;;;;;18.83;57.87;100665.72;4985799;28;20197;-71
2023/12/27 11:04:47;;;;;;;5.83;1.50;;;;;;;18.80;58.10;100658.72;4956379;28;20673;-70
2023/12/27 11:07:13;;;;;;;2.30;1.23;;;;;;;18.78;57.94;100660.31;4966814;28;20466;-70
2023/12/27 11:09:39;;;;;;;2.20;1.10;;;;;;;18.81;58.02;100656.72;4938082;28;20218;-71
2023/12/27 11:12:06;;;;;;;3.33;1.80;;;;;;;18.82;57.65;100638.34;4940674;28;20462;-70
2023/12/27 11:14:33;;;;;;;2.13;1.20;;;;;;;18.79;57.46;100630.50;4956981;28;20282;-70
2023/12/27 11:16:58;;;;;;;2.67;1.20;;;;;;;18.82;57.67;100636.28;4973878;28;20444;-70